createdAt,value
2018-03-26T00:00:22.993Z,42.77
2018-03-26T00:02:50.533Z,43.73
2018-03-26T00:05:18.096Z,43.87
2018-03-26T00:07:45.772Z,46.50
2018-03-26T00:10:13.370Z,43.40
2018-03-26T00:12:40.905Z,43.70
2018-03-26T00:15:08.498Z,45.27
2018-03-26T00:17:36.084Z,41.50
2018-03-26T00:20:04.425Z,44.80
2018-03-26T00:22:31.964Z,43.80
2018-03-26T00:24:59.521Z,43.10
2018-03-26T00:27:27.062Z,46.13
2018-03-26T00:29:54.629Z,44.67
2018-03-26T00:32:22.218Z,43.90
2018-03-26T00:34:49.792Z,42.90
2018-03-26T00:37:17.507Z,43.97
2018-03-26T00:39:45.087Z,45.83
2018-03-26T00:42:12.702Z,44.27
2018-03-26T00:44:40.763Z,44.40
2018-03-26T00:47:09.082Z,45.80
2018-03-26T00:49:36.698Z,43.80
2018-03-26T00:52:05.249Z,45.23
2018-03-26T00:54:33.044Z,45.40
2018-03-26T00:57:01.702Z,44.77
2018-03-26T00:59:29.248Z,42.47
2018-03-26T01:01:56.808Z,45.07
2018-03-26T01:04:24.359Z,46.30
2018-03-26T01:06:51.927Z,46.97
2018-03-26T01:09:19.469Z,45.60
2018-03-26T01:11:47.081Z,47.63
2018-03-26T01:14:15.397Z,46.63
2018-03-26T01:16:43.151Z,44.67
2018-03-26T01:19:10.705Z,46.30
2018-03-26T01:21:38.285Z,46.03
2018-03-26T01:24:05.830Z,43.47
2018-03-26T01:26:33.411Z,46.50
2018-03-26T01:29:01.195Z,45.47
2018-03-26T01:31:28.776Z,44.60
2018-03-26T01:33:56.339Z,44.50
2018-03-26T01:36:24.134Z,44.67
2018-03-26T01:38:51.809Z,45.70
2018-03-26T01:41:19.400Z,45.03
2018-03-26T01:43:47.002Z,44.40
2018-03-26T01:46:14.638Z,44.40
2018-03-26T01:48:42.206Z,44.40
2018-03-26T01:51:09.761Z,44.80
2018-03-26T01:53:37.350Z,46.10
2018-03-26T01:56:05.686Z,46.43
2018-03-26T01:58:33.269Z,44.87
2018-03-26T02:01:00.810Z,44.57
2018-03-26T02:03:28.386Z,47.37
2018-03-26T02:05:55.922Z,44.07
2018-03-26T02:08:23.491Z,43.97
2018-03-26T02:10:51.034Z,48.57
2018-03-26T02:13:18.622Z,46.63
2018-03-26T02:15:46.934Z,47.30
2018-03-26T02:18:14.671Z,47.23
2018-03-26T02:20:42.227Z,47.73
2018-03-26T02:23:10.561Z,45.30
2018-03-26T02:25:38.092Z,45.47
2018-03-26T02:28:05.663Z,53.63
2018-03-26T02:30:33.202Z,64.60
2018-03-26T02:33:00.758Z,47.53
2018-03-26T02:35:28.301Z,47.07
2018-03-26T02:37:57.260Z,51.30
2018-03-26T02:40:24.962Z,46.60
2018-03-26T02:42:53.280Z,44.70
2018-03-26T02:45:20.865Z,46.00
2018-03-26T02:47:48.413Z,44.10
2018-03-26T02:50:16.009Z,44.73
2018-03-26T02:52:44.315Z,45.93
2018-03-26T02:55:11.893Z,46.80
2018-03-26T02:57:39.557Z,45.40
2018-03-26T03:00:07.132Z,46.17
2018-03-26T03:02:34.877Z,48.70
2018-03-26T03:05:02.460Z,49.83
2018-03-26T03:07:29.992Z,43.20
2018-03-26T03:09:57.559Z,46.10
2018-03-26T03:12:25.101Z,44.93
2018-03-26T03:14:52.697Z,48.97
2018-03-26T03:17:20.238Z,44.70
2018-03-26T03:19:47.822Z,47.37
2018-03-26T03:22:15.360Z,45.27
2018-03-26T03:24:43.011Z,46.90
2018-03-26T03:27:10.553Z,44.30
2018-03-26T03:29:38.133Z,46.43
2018-03-26T03:32:05.701Z,46.30
2018-03-26T03:34:33.296Z,48.40
2018-03-26T03:37:00.858Z,49.70
2018-03-26T03:39:28.397Z,45.03
2018-03-26T03:41:55.981Z,46.47
2018-03-26T03:44:23.529Z,46.03
2018-03-26T03:46:51.096Z,45.13
2018-03-26T03:49:18.640Z,46.90
2018-03-26T03:51:47.512Z,46.80
2018-03-26T03:54:15.045Z,46.27
2018-03-26T03:56:43.037Z,46.20
2018-03-26T03:59:11.210Z,46.03
2018-03-26T04:01:38.972Z,45.90
2018-03-26T04:04:07.269Z,45.37
2018-03-26T04:06:35.013Z,48.37
2018-03-26T04:09:02.560Z,48.40
2018-03-26T04:11:30.160Z,47.17
2018-03-26T04:13:57.731Z,46.33
2018-03-26T04:16:25.526Z,49.40
2018-03-26T04:18:53.827Z,44.40
2018-03-26T04:21:21.537Z,47.83
2018-03-26T04:23:49.337Z,48.10
2018-03-26T04:26:17.162Z,45.90
2018-03-26T04:28:44.702Z,47.43
2018-03-26T04:31:12.240Z,49.30
2018-03-26T04:33:39.799Z,49.33
2018-03-26T04:36:07.374Z,46.87
2018-03-26T04:38:34.957Z,49.50
2018-03-26T04:41:02.498Z,50.40
2018-03-26T04:43:30.575Z,61.43
2018-03-26T04:45:58.108Z,56.33
2018-03-26T04:48:25.676Z,56.00
2018-03-26T04:50:53.230Z,56.93
2018-03-26T04:53:21.712Z,57.27
2018-03-26T04:55:49.414Z,53.20
2018-03-26T04:58:16.987Z,52.23
2018-03-26T05:00:45.174Z,52.10
2018-03-26T05:03:12.732Z,52.37
2018-03-26T05:05:41.044Z,49.83
2018-03-26T05:08:08.625Z,50.60
2018-03-26T05:10:36.172Z,50.83
2018-03-26T05:13:03.752Z,49.23
2018-03-26T05:15:31.315Z,50.17
2018-03-26T05:17:58.886Z,49.47
2018-03-26T05:20:26.430Z,51.67
2018-03-26T05:22:54.006Z,51.77
2018-03-26T05:25:21.585Z,50.63
2018-03-26T05:27:49.114Z,50.97
2018-03-26T05:30:16.684Z,46.70
2018-03-26T05:32:44.257Z,47.40
2018-03-26T05:35:12.592Z,47.53
2018-03-26T05:37:40.492Z,48.33
2018-03-26T05:40:08.088Z,47.90
2018-03-26T05:42:36.529Z,54.17
2018-03-26T05:45:04.224Z,52.57
2018-03-26T05:47:31.774Z,52.67
2018-03-26T05:49:59.537Z,53.30
2018-03-26T05:52:27.870Z,49.40
2018-03-26T05:54:55.446Z,50.17
2018-03-26T05:57:22.985Z,49.80
2018-03-26T05:59:50.559Z,52.27
2018-03-26T06:02:18.083Z,51.80
2018-03-26T06:04:45.649Z,54.03
2018-03-26T06:07:13.204Z,53.00
2018-03-26T06:09:40.810Z,50.20
2018-03-26T06:12:08.358Z,49.27
2018-03-26T06:14:36.905Z,49.07
2018-03-26T06:17:13.699Z,51.83
2018-03-26T06:19:41.439Z,49.40
2018-03-26T06:22:09.107Z,49.10
2018-03-26T06:24:36.632Z,47.97
2018-03-26T06:27:05.043Z,51.03
2018-03-26T06:29:32.577Z,46.90
2018-03-26T06:32:01.075Z,47.20
2018-03-26T06:34:28.622Z,47.27
2018-03-26T06:37:13.120Z,51.67
2018-03-26T06:39:40.684Z,52.07
2018-03-26T06:42:08.252Z,53.17
2018-03-26T06:44:35.925Z,50.80
2018-03-26T06:47:03.502Z,53.90
2018-03-26T06:49:31.067Z,57.23
2018-03-26T06:51:59.401Z,59.70
2018-03-26T06:54:26.952Z,60.63
2018-03-26T06:56:54.532Z,58.97
2018-03-26T06:59:22.069Z,60.33
2018-03-26T07:01:49.638Z,59.40
2018-03-26T07:04:17.185Z,57.63
2018-03-26T07:06:45.046Z,55.33
2018-03-26T07:09:12.597Z,58.30
2018-03-26T07:11:40.207Z,58.17
2018-03-26T07:14:07.982Z,55.63
2018-03-26T07:16:35.564Z,57.60
2018-03-26T07:19:03.154Z,60.90
2018-03-26T07:21:30.706Z,54.80
2018-03-26T07:23:58.286Z,54.20
2018-03-26T07:26:26.604Z,52.67
2018-03-26T07:28:55.002Z,54.73
2018-03-26T07:31:22.500Z,62.50
2018-03-26T07:33:50.138Z,60.70
2018-03-26T07:36:17.677Z,54.47
2018-03-26T07:38:45.246Z,55.03
2018-03-26T07:41:12.806Z,55.70
2018-03-26T07:43:40.400Z,52.80
2018-03-26T07:46:07.951Z,51.53
2018-03-26T07:48:35.520Z,49.33
2018-03-26T07:51:03.077Z,47.80
2018-03-26T07:53:30.636Z,45.40
2018-03-26T07:55:58.180Z,46.03
2018-03-26T07:58:25.742Z,48.60
2018-03-26T08:00:53.284Z,46.10
2018-03-26T08:03:21.922Z,49.73
2018-03-26T08:05:49.481Z,49.90
2018-03-26T08:08:17.785Z,51.07
2018-03-26T08:10:45.352Z,50.03
2018-03-26T08:13:12.921Z,49.27
2018-03-26T08:15:40.487Z,49.90
2018-03-26T08:18:08.029Z,51.37
2018-03-26T08:20:35.598Z,51.27
2018-03-26T08:23:03.143Z,46.73
2018-03-26T08:25:30.700Z,46.27
2018-03-26T08:27:59.014Z,47.57
2018-03-26T08:30:26.600Z,48.50
2018-03-26T08:32:54.162Z,44.87
2018-03-26T08:35:21.738Z,44.70
2018-03-26T08:37:49.278Z,49.67
2018-03-26T08:40:16.848Z,46.67
2018-03-26T08:42:44.396Z,46.20
2018-03-26T08:45:11.952Z,41.53
2018-03-26T08:47:39.489Z,46.33
2018-03-26T08:50:07.135Z,45.37
2018-03-26T08:52:34.682Z,47.03
2018-03-26T08:55:02.373Z,43.93
2018-03-26T08:57:30.043Z,46.17
2018-03-26T08:59:57.603Z,43.30
2018-03-26T09:02:25.156Z,45.63
2018-03-26T09:04:52.751Z,46.43
2018-03-26T09:07:20.404Z,44.47
2018-03-26T09:09:48.174Z,43.87
2018-03-26T09:12:15.818Z,43.30
2018-03-26T09:14:43.428Z,37.23
2018-03-26T09:17:10.958Z,39.43
2018-03-26T09:19:38.489Z,34.73
2018-03-26T09:22:06.163Z,36.43
2018-03-26T09:24:33.757Z,37.70
2018-03-26T09:27:02.095Z,35.13
2018-03-26T09:29:29.714Z,28.80
2018-03-26T09:31:57.300Z,34.90
2018-03-26T09:34:24.970Z,33.73
2018-03-26T09:36:52.542Z,28.80
2018-03-26T09:39:20.083Z,33.50
2018-03-26T09:41:47.757Z,36.53
2018-03-26T09:44:15.392Z,36.73
2018-03-26T09:46:43.141Z,34.67
2018-03-26T09:49:10.692Z,34.47
2018-03-26T09:51:38.239Z,35.43
2018-03-26T09:54:06.566Z,35.27
2018-03-26T09:56:34.121Z,37.40
2018-03-26T09:59:01.689Z,36.80
2018-03-26T10:01:32.153Z,38.07
2018-03-26T10:04:00.497Z,33.43
2018-03-26T10:06:28.101Z,38.07
2018-03-26T10:08:56.515Z,32.57
2018-03-26T10:11:24.074Z,27.07
2018-03-26T10:13:51.726Z,28.47
2018-03-26T10:16:19.675Z,36.20
2018-03-26T10:18:47.266Z,37.33
2018-03-26T10:21:14.814Z,36.33
2018-03-26T10:23:42.475Z,34.10
2018-03-26T10:26:10.874Z,36.37
2018-03-26T10:28:38.452Z,38.00
2018-03-26T10:31:06.074Z,16.47
2018-03-26T10:33:34.133Z,33.47
2018-03-26T10:36:01.714Z,31.80
2018-03-26T10:38:29.336Z,33.20
2018-03-26T10:40:56.838Z,33.77
2018-03-26T10:43:24.404Z,34.60
2018-03-26T10:45:51.978Z,36.00
2018-03-26T10:48:19.534Z,34.00
2018-03-26T10:50:47.329Z,28.43
2018-03-26T10:53:15.104Z,29.60
2018-03-26T10:55:43.526Z,31.13
2018-03-26T10:58:11.080Z,34.20
2018-03-26T11:00:38.709Z,32.97
2018-03-26T11:03:07.189Z,33.07
2018-03-26T11:05:35.718Z,33.47
2018-03-26T11:08:03.262Z,22.07
2018-03-26T11:10:30.834Z,33.43
2018-03-26T11:12:58.383Z,30.30
2018-03-26T11:15:25.966Z,34.57
2018-03-26T11:17:53.571Z,28.83
2018-03-26T11:20:21.941Z,33.03
2018-03-26T11:22:49.485Z,32.57
2018-03-26T11:25:17.069Z,33.33
2018-03-26T11:27:44.623Z,32.73
2018-03-26T11:30:12.954Z,31.47
2018-03-26T11:32:40.702Z,28.70
2018-03-26T11:35:08.278Z,28.90
2018-03-26T11:37:36.141Z,27.23
2018-03-26T11:40:03.752Z,28.70
2018-03-26T11:42:32.074Z,29.13
2018-03-26T11:44:59.667Z,28.37
2018-03-26T11:47:27.779Z,30.80
2018-03-26T11:49:55.321Z,34.53
2018-03-26T11:52:22.889Z,26.53
2018-03-26T11:54:51.200Z,26.50
2018-03-26T11:57:18.755Z,33.00
2018-03-26T11:59:46.313Z,29.00
2018-03-26T12:02:13.876Z,27.73
2018-03-26T12:04:41.428Z,24.20
2018-03-26T12:07:09.018Z,28.27
2018-03-26T12:09:36.553Z,26.17
2018-03-26T12:12:04.092Z,29.47
2018-03-26T12:14:31.671Z,30.50
2018-03-26T12:16:59.304Z,25.17
2018-03-26T12:19:27.598Z,27.47
2018-03-26T12:21:55.166Z,25.63
2018-03-26T12:24:34.403Z,33.13
2018-03-26T12:27:03.337Z,32.03
2018-03-26T12:29:42.815Z,35.53
2018-03-26T12:32:10.595Z,31.03
2018-03-26T12:34:49.978Z,29.40
2018-03-26T12:37:18.412Z,30.43
2018-03-26T12:39:45.960Z,32.13
2018-03-26T12:42:14.297Z,25.40
2018-03-26T12:45:07.497Z,31.20
2018-03-26T12:47:35.064Z,37.47
2018-03-26T12:50:02.617Z,34.90
2018-03-26T12:52:41.188Z,33.83
2018-03-26T12:55:08.746Z,35.20
2018-03-26T12:57:48.112Z,34.73
2018-03-26T13:00:16.432Z,37.83
2018-03-26T13:02:44.002Z,37.30
2018-03-26T13:05:11.650Z,39.87
2018-03-26T13:07:39.217Z,38.10
2018-03-26T13:10:06.763Z,35.83
2018-03-26T13:12:34.341Z,39.00
2018-03-26T13:15:02.642Z,37.47
2018-03-26T13:17:30.254Z,37.57
2018-03-26T13:19:57.836Z,36.43
2018-03-26T13:22:26.353Z,33.40
2018-03-26T13:24:53.964Z,36.60
2018-03-26T13:27:21.606Z,40.07
2018-03-26T13:29:49.236Z,40.60
2018-03-26T13:32:16.834Z,34.53
2018-03-26T13:34:44.438Z,36.43
2018-03-26T13:37:12.017Z,39.20
2018-03-26T13:39:40.389Z,35.50
2018-03-26T13:42:07.986Z,25.90
2018-03-26T13:44:35.617Z,37.97
2018-03-26T13:47:03.187Z,32.80
2018-03-26T13:49:31.521Z,37.97
2018-03-26T13:51:59.088Z,42.10
2018-03-26T13:54:26.657Z,31.20
2018-03-26T13:56:55.814Z,42.90
2018-03-26T13:59:23.379Z,24.10
2018-03-26T14:01:52.451Z,40.50
2018-03-26T14:04:20.067Z,36.60
2018-03-26T14:06:47.692Z,41.10
2018-03-26T14:09:27.130Z,38.93
2018-03-26T14:12:06.635Z,41.50
2018-03-26T14:14:46.857Z,41.93
2018-03-26T14:17:26.109Z,37.17
2018-03-26T14:19:53.927Z,39.70
2018-03-26T14:22:21.494Z,39.50
2018-03-26T14:24:49.133Z,40.73
2018-03-26T14:27:16.710Z,40.67
2018-03-26T14:29:44.265Z,39.90
2018-03-26T14:32:11.828Z,40.77
2018-03-26T14:34:39.367Z,38.40
2018-03-26T14:37:06.942Z,38.00
2018-03-26T14:39:34.468Z,36.67
2018-03-26T14:42:02.804Z,21.87
2018-03-26T14:44:30.347Z,35.00
2018-03-26T14:46:57.998Z,24.67
2018-03-26T14:49:25.609Z,33.03
2018-03-26T14:51:53.181Z,32.90
2018-03-26T14:54:21.600Z,32.53
2018-03-26T14:56:49.172Z,31.63
2018-03-26T14:59:16.736Z,33.63
2018-03-26T15:01:44.297Z,35.20
2018-03-26T15:04:11.853Z,33.10
2018-03-26T15:06:39.421Z,34.20
2018-03-26T15:09:07.196Z,34.03
2018-03-26T15:11:34.833Z,35.20
2018-03-26T15:14:02.386Z,33.93
2018-03-26T15:16:29.986Z,35.70
2018-03-26T15:18:57.560Z,33.80
2018-03-26T15:21:25.264Z,35.80
2018-03-26T15:23:52.858Z,37.00
2018-03-26T15:26:20.472Z,38.00
2018-03-26T15:28:48.150Z,36.07
2018-03-26T15:31:15.769Z,35.90
2018-03-26T15:33:44.175Z,36.57
2018-03-26T15:36:11.754Z,34.67
2018-03-26T15:38:39.334Z,34.80
2018-03-26T15:41:07.045Z,36.20
2018-03-26T15:43:34.673Z,36.80
2018-03-26T15:46:02.323Z,38.13
2018-03-26T15:48:29.906Z,36.87
2018-03-26T15:50:57.578Z,36.70
2018-03-26T15:53:25.363Z,37.00
2018-03-26T15:55:52.951Z,36.90
2018-03-26T15:58:20.548Z,37.00
2018-03-26T16:00:48.140Z,36.70
2018-03-26T16:03:21.548Z,34.23
2018-03-26T16:05:49.168Z,34.30
2018-03-26T16:08:16.733Z,36.53
2018-03-26T16:10:44.316Z,32.17
2018-03-26T16:13:11.972Z,33.23
2018-03-26T16:15:40.307Z,34.83
2018-03-26T16:18:07.849Z,31.80
2018-03-26T16:20:35.433Z,32.73
2018-03-26T16:23:02.984Z,32.27
2018-03-26T16:25:30.586Z,31.20
2018-03-26T16:27:58.272Z,32.17
2018-03-26T16:30:26.000Z,32.40
2018-03-26T16:32:53.676Z,35.57
2018-03-26T16:35:22.019Z,28.80
2018-03-26T16:37:49.584Z,33.47
2018-03-26T16:40:17.175Z,29.67
2018-03-26T16:42:44.920Z,31.10
2018-03-26T16:45:12.535Z,27.23
2018-03-26T16:47:40.100Z,26.13
2018-03-26T16:50:07.795Z,27.53
2018-03-26T16:52:35.406Z,24.67
2018-03-26T16:55:03.033Z,25.20
2018-03-26T16:57:31.400Z,23.83
2018-03-26T16:59:58.953Z,22.50
2018-03-26T17:02:33.201Z,20.97
2018-03-26T17:05:00.768Z,20.43
2018-03-26T17:07:28.375Z,25.50
2018-03-26T17:09:55.949Z,25.40
2018-03-26T17:12:23.553Z,24.90
2018-03-26T17:14:51.169Z,25.03
2018-03-26T17:17:18.915Z,26.30
2018-03-26T17:19:46.487Z,26.57
2018-03-26T17:22:14.131Z,27.67
2018-03-26T17:24:41.682Z,28.40
2018-03-26T17:27:09.364Z,30.47
2018-03-26T17:29:37.288Z,27.50
2018-03-26T17:32:04.869Z,30.40
2018-03-26T17:34:32.397Z,30.53
2018-03-26T17:36:59.969Z,31.50
2018-03-26T17:39:27.547Z,30.83
2018-03-26T17:41:55.383Z,29.43
2018-03-26T17:44:22.958Z,30.57
2018-03-26T17:46:50.551Z,29.57
2018-03-26T17:49:18.102Z,28.80
2018-03-26T17:51:45.655Z,27.80
2018-03-26T17:54:13.272Z,28.30
2018-03-26T17:56:41.593Z,27.83
2018-03-26T17:59:09.184Z,28.13
2018-03-26T18:01:36.732Z,27.50
2018-03-26T18:04:04.565Z,28.53
2018-03-26T18:06:32.165Z,29.73
2018-03-26T18:09:00.572Z,30.27
2018-03-26T18:11:28.276Z,32.00
2018-03-26T18:13:56.014Z,28.67
2018-03-26T18:16:23.553Z,30.13
2018-03-26T18:18:51.259Z,27.07
2018-03-26T18:21:18.910Z,27.30
2018-03-26T18:23:46.487Z,27.57
2018-03-26T18:26:14.143Z,27.50
2018-03-26T18:28:41.899Z,25.00
2018-03-26T18:31:09.564Z,27.57
2018-03-26T18:33:37.149Z,25.50
2018-03-26T18:36:04.727Z,25.23
2018-03-26T18:38:32.334Z,23.40
2018-03-26T18:40:59.877Z,23.40
2018-03-26T18:43:28.214Z,24.77
2018-03-26T18:45:55.837Z,23.13
2018-03-26T18:48:23.397Z,22.47
2018-03-26T18:50:51.002Z,22.43
2018-03-26T18:53:18.761Z,22.00
2018-03-26T18:55:46.382Z,22.70
2018-03-26T18:58:14.137Z,22.93
2018-03-26T19:00:41.916Z,20.73
2018-03-26T19:03:09.514Z,24.13
2018-03-26T19:05:37.942Z,22.23
2018-03-26T19:08:05.635Z,23.57
2018-03-26T19:10:33.251Z,21.80
2018-03-26T19:13:00.854Z,21.27
2018-03-26T19:15:28.565Z,22.80
2018-03-26T19:17:56.979Z,23.63
2018-03-26T19:20:24.569Z,20.40
2018-03-26T19:22:52.158Z,23.80
2018-03-26T19:25:20.545Z,22.37
2018-03-26T19:27:48.100Z,22.87
2018-03-26T19:30:16.541Z,22.20
2018-03-26T19:32:44.090Z,20.63
2018-03-26T19:35:11.667Z,19.97
2018-03-26T19:37:39.233Z,21.10
2018-03-26T19:40:07.013Z,21.40
2018-03-26T19:42:34.622Z,22.63
2018-03-26T19:45:02.175Z,20.00
2018-03-26T19:47:29.846Z,20.93
2018-03-26T19:49:57.961Z,22.43
2018-03-26T19:52:25.551Z,22.03
2018-03-26T19:54:53.881Z,23.33
2018-03-26T19:57:21.518Z,22.33
2018-03-26T19:59:49.122Z,22.70
2018-03-26T20:02:16.915Z,23.53
2018-03-26T20:04:44.468Z,24.20
2018-03-26T20:07:12.838Z,21.43
2018-03-26T20:09:40.424Z,21.63
2018-03-26T20:12:08.006Z,22.47
2018-03-26T20:14:35.555Z,22.97
2018-03-26T20:17:03.129Z,23.53
2018-03-26T20:19:30.675Z,23.03
2018-03-26T20:21:58.251Z,23.37
2018-03-26T20:24:25.843Z,21.97
2018-03-26T20:26:53.416Z,20.70
2018-03-26T20:29:21.762Z,19.97
2018-03-26T20:31:49.320Z,21.00
2018-03-26T20:34:17.006Z,17.60
2018-03-26T20:36:44.550Z,20.63
2018-03-26T20:39:12.143Z,18.37
2018-03-26T20:41:40.462Z,18.40
2018-03-26T20:44:08.090Z,17.90
2018-03-26T20:46:35.686Z,20.10
2018-03-26T20:49:03.265Z,19.83
2018-03-26T20:51:30.881Z,19.97
2018-03-26T20:53:58.632Z,19.23
2018-03-26T20:56:26.191Z,19.23
2018-03-26T20:58:53.794Z,18.60
2018-03-26T21:01:21.330Z,17.83
2018-03-26T21:03:48.897Z,19.03
2018-03-26T21:06:16.465Z,19.87
2018-03-26T21:08:44.048Z,20.23
2018-03-26T21:11:11.603Z,19.80
2018-03-26T21:13:39.169Z,22.97
2018-03-26T21:16:06.722Z,19.77
2018-03-26T21:18:34.332Z,41.87
2018-03-26T21:21:02.016Z,20.90
2018-03-26T21:23:29.634Z,22.50
2018-03-26T21:25:57.200Z,18.97
2018-03-26T21:28:24.733Z,18.97
2018-03-26T21:30:52.367Z,19.20
2018-03-26T21:33:19.917Z,21.13
2018-03-26T21:35:47.481Z,21.70
2018-03-26T21:38:15.027Z,21.40
2018-03-26T21:40:42.593Z,20.93
2018-03-26T21:43:10.133Z,20.90
2018-03-26T21:45:37.701Z,20.30
2018-03-26T21:48:05.326Z,20.03
2018-03-26T21:50:32.892Z,20.00
2018-03-26T21:53:01.193Z,22.50
2018-03-26T21:55:28.782Z,18.60
2018-03-26T21:57:56.341Z,19.40
2018-03-26T22:00:23.933Z,21.07
2018-03-26T22:02:51.482Z,23.27
2018-03-26T22:05:19.055Z,21.87
2018-03-26T22:07:46.602Z,21.40
2018-03-26T22:10:14.171Z,23.83
2018-03-26T22:12:41.709Z,22.40
2018-03-26T22:15:09.301Z,21.73
2018-03-26T22:17:36.838Z,20.10
2018-03-26T22:20:04.372Z,20.70
2018-03-26T22:22:31.933Z,20.00
2018-03-26T22:24:59.517Z,20.37
2018-03-26T22:27:27.147Z,22.33
2018-03-26T22:29:54.682Z,25.30
2018-03-26T22:32:22.278Z,24.20
2018-03-26T22:34:49.869Z,24.40
2018-03-26T22:37:17.618Z,22.13
2018-03-26T22:39:45.186Z,24.43
2018-03-26T22:42:12.748Z,20.10
2018-03-26T22:44:40.285Z,26.40
2018-03-26T22:47:08.029Z,24.20
2018-03-26T22:49:35.562Z,23.87
2018-03-26T22:52:03.893Z,23.50
2018-03-26T22:54:31.454Z,19.70
2018-03-26T22:56:59.049Z,22.90
2018-03-26T22:59:26.583Z,23.17
2018-03-26T23:01:54.146Z,23.77
2018-03-26T23:04:22.440Z,20.33
2018-03-26T23:06:49.997Z,21.73
2018-03-26T23:09:17.703Z,21.80
2018-03-26T23:11:45.393Z,14.07
2018-03-26T23:14:12.950Z,20.07
2018-03-26T23:16:40.478Z,23.40
2018-03-26T23:19:08.039Z,20.80
2018-03-26T23:21:36.252Z,23.40
2018-03-26T23:24:04.658Z,22.30
2018-03-26T23:26:32.967Z,20.67
2018-03-26T23:29:00.525Z,19.00
2018-03-26T23:31:28.049Z,19.40
2018-03-26T23:33:56.368Z,20.63
2018-03-26T23:36:23.901Z,18.20
2018-03-26T23:38:51.463Z,19.63
2018-03-26T23:41:19.952Z,16.70
2018-03-26T23:43:47.512Z,19.67
2018-03-26T23:46:15.052Z,19.73
2018-03-26T23:48:44.293Z,19.23
2018-03-26T23:51:11.973Z,18.70
2018-03-26T23:53:39.719Z,19.80
2018-03-26T23:56:07.270Z,20.43
2018-03-26T23:58:34.809Z,19.60
